Time;durP1;ratioP1;P1;durP2;ratioP2;P2;SDS_P1;SDS_P2;PMS_P1;PMS_P2;Temp;Humidity;BMP_temperature;BMP_pressure;BME280_temperature;BME280_humidity;BME280_pressure;Samples;Min_cycle;Max_cycle;Signal;HPM_P1;HPM_P2
2022/11/10 00:00:45;;;;;;;12.73;11.80;;;11.40;99.90;;;;;;5005991;28;20207;-78
2022/11/10 00:03:11;;;;;;;18.53;17.40;;;11.40;99.90;;;;;;5002420;28;20227;-77
2022/11/10 00:05:38;;;;;;;16.33;14.87;;;11.40;99.90;;;;;;4997950;28;20216;-77
2022/11/10 00:08:05;;;;;;;14.23;13.00;;;11.40;99.90;;;;;;4993651;28;20712;-78
2022/11/10 00:10:31;;;;;;;20.27;16.73;;;11.40;99.90;;;;;;4998979;28;20249;-78
2022/11/10 00:13:01;;;;;;;34.07;31.73;;;11.40;99.90;;;;;;5014180;28;20208;-79
2022/11/10 00:18:12;;;;;;;9.33;7.00;;;11.30;99.90;;;;;;5014048;28;20229;-79
2022/11/10 00:20:38;;;;;;;8.93;8.07;;;11.30;99.90;;;;;;5010108;28;20188;-78
2022/11/10 00:23:05;;;;;;;10.13;8.77;;;11.30;99.90;;;;;;4994132;28;20188;-78
2022/11/10 00:25:31;;;;;;;16.07;14.80;;;11.30;99.90;;;;;;5001845;28;20215;-78
2022/11/10 00:27:58;;;;;;;37.60;34.93;;;11.30;99.90;;;;;;4993347;28;20192;-79
2022/11/10 00:30:25;;;;;;;38.33;36.20;;;11.30;99.90;;;;;;4994018;28;20263;-79
2022/11/10 00:32:51;;;;;;;39.93;37.43;;;11.30;99.90;;;;;;4994248;28;20180;-79
2022/11/10 00:35:16;;;;;;;14.37;12.37;;;11.40;99.90;;;;;;4993863;28;20241;-79
2022/11/10 00:37:42;;;;;;;7.27;6.17;;;11.40;99.90;;;;;;4993520;28;20188;-78
2022/11/10 00:40:08;;;;;;;7.50;6.27;;;11.30;99.90;;;;;;4993619;28;20198;-78
2022/11/10 00:42:34;;;;;;;7.17;6.57;;;11.40;99.90;;;;;;5011402;28;20939;-79
2022/11/10 00:45:00;;;;;;;12.97;7.43;;;11.40;99.90;;;;;;5011068;28;20215;-78
2022/11/10 00:47:26;;;;;;;19.70;17.37;;;11.40;99.90;;;;;;5010916;28;20190;-79
2022/11/10 00:49:51;;;;;;;29.97;28.07;;;11.40;99.90;;;;;;5010864;28;20172;-78
2022/11/10 00:52:17;;;;;;;72.90;65.70;;;11.40;99.90;;;;;;4991590;28;20183;-79
2022/11/10 00:54:43;;;;;;;63.77;59.20;;;11.30;99.90;;;;;;4990532;28;20325;-79
2022/11/10 00:57:09;;;;;;;51.33;47.80;;;11.40;99.90;;;;;;4995680;28;20188;-79
2022/11/10 00:59:34;;;;;;;41.10;38.70;;;11.40;99.90;;;;;;4997687;28;20180;-79
2022/11/10 01:02:00;;;;;;;40.67;38.00;;;11.40;99.90;;;;;;5011207;28;20186;-79
2022/11/10 01:04:26;;;;;;;50.30;47.17;;;11.40;99.90;;;;;;5011213;28;20211;-78
2022/11/10 01:06:52;;;;;;;57.40;53.87;;;11.40;99.90;;;;;;5013035;28;20610;-79
2022/11/10 01:09:18;;;;;;;75.63;70.93;;;11.40;99.90;;;;;;5008316;28;20173;-79
2022/11/10 01:11:43;;;;;;;74.93;70.10;;;11.40;99.90;;;;;;4991551;28;20188;-78
2022/11/10 01:14:09;;;;;;;82.00;77.60;;;11.40;99.90;;;;;;4991193;28;20193;-78
2022/11/10 01:16:35;;;;;;;98.47;93.03;;;11.40;99.90;;;;;;4990470;28;20607;-79
2022/11/10 01:19:02;;;;;;;27.40;25.10;;;11.40;99.90;;;;;;4991352;28;20210;-79
2022/11/10 01:21:29;;;;;;;9.50;6.10;;;11.40;99.90;;;;;;5010803;28;20720;-79
2022/11/10 01:23:55;;;;;;;13.17;9.03;;;11.40;99.90;;;;;;5011424;28;20727;-79
2022/11/10 01:26:21;;;;;;;8.50;7.80;;;11.40;99.90;;;;;;5012856;28;20716;-81
2022/11/10 01:28:47;;;;;;;17.23;16.10;;;11.40;99.90;;;;;;5012939;28;20213;-79
2022/11/10 01:31:17;;;;;;;47.00;44.50;;;11.40;99.90;;;;;;4992045;28;20184;-79
2022/11/10 01:33:43;;;;;;;24.47;23.10;;;11.40;99.90;;;;;;4992183;28;20771;-78
2022/11/10 01:36:11;;;;;;;8.80;7.83;;;11.40;99.90;;;;;;4996113;28;20180;-78
2022/11/10 01:38:39;;;;;;;7.40;6.90;;;11.30;99.90;;;;;;5005690;28;20191;-78
2022/11/10 01:41:07;;;;;;;8.13;7.13;;;11.30;99.90;;;;;;4994659;28;20181;-78
2022/11/10 01:43:33;;;;;;;10.67;9.83;;;11.30;99.90;;;;;;4991945;28;20188;-78
2022/11/10 01:46:00;;;;;;;9.63;8.83;;;11.30;99.90;;;;;;4992610;28;20183;-78
2022/11/10 01:48:26;;;;;;;15.67;14.40;;;11.30;99.90;;;;;;4992163;28;20180;-78
2022/11/10 01:50:53;;;;;;;10.70;8.93;;;11.30;99.90;;;;;;5005492;28;20183;-78
2022/11/10 01:53:23;;;;;;;24.40;23.10;;;11.30;99.90;;;;;;5010382;28;20183;-78
2022/11/10 01:55:50;;;;;;;72.37;68.33;;;11.30;99.90;;;;;;5016717;28;20183;-77
2022/11/10 01:58:21;;;;;;;104.13;98.37;;;11.20;99.90;;;;;;5018377;28;20195;-78
2022/11/10 02:00:47;;;;;;;137.30;129.87;;;11.20;99.90;;;;;;5006943;28;20196;-78
2022/11/10 02:03:52;;;;;;;131.03;124.23;;;11.20;99.90;;;;;;4992082;28;20187;-78
2022/11/10 02:06:24;;;;;;;133.07;126.13;;;11.20;99.90;;;;;;4991035;28;20192;-78
2022/11/10 02:08:51;;;;;;;109.03;103.10;;;11.20;99.90;;;;;;4991239;28;20234;-78
2022/11/10 02:11:17;;;;;;;111.60;105.17;;;11.10;99.90;;;;;;4992367;28;20243;-78
2022/11/10 02:13:42;;;;;;;146.47;138.23;;;11.10;99.90;;;;;;4990369;28;20754;-78
2022/11/10 02:16:09;;;;;;;136.77;129.27;;;11.10;99.90;;;;;;4991310;28;20177;-78
2022/11/10 02:18:36;;;;;;;148.00;140.13;;;11.00;99.90;;;;;;4990762;28;20188;-78
2022/11/10 02:21:04;;;;;;;147.33;139.63;;;10.90;99.90;;;;;;5007689;28;20166;-78
2022/11/10 02:23:30;;;;;;;157.53;149.30;;;10.80;99.90;;;;;;5021530;28;20184;-77
2022/11/10 02:25:57;;;;;;;143.50;135.93;;;10.80;99.90;;;;;;5016939;28;20705;-77
2022/11/10 02:28:24;;;;;;;125.77;119.27;;;10.70;99.90;;;;;;5020456;28;20180;-77
2022/11/10 02:30:50;;;;;;;112.47;106.23;;;10.60;99.90;;;;;;5006567;28;20188;-78
2022/11/10 02:33:16;;;;;;;92.80;87.57;;;10.60;99.90;;;;;;4996584;28;20233;-78
2022/11/10 02:35:46;;;;;;;15.03;13.90;;;10.50;99.90;;;;;;4995291;28;20192;-78
2022/11/10 02:38:13;;;;;;;13.53;12.53;;;10.50;99.90;;;;;;4994253;28;20195;-79
2022/11/10 02:40:39;;;;;;;13.00;10.00;;;10.50;99.90;;;;;;5006810;28;20233;-79
2022/11/10 02:43:08;;;;;;;14.07;13.00;;;10.40;99.90;;;;;;5014380;28;20199;-78
2022/11/10 02:45:34;;;;;;;27.63;25.40;;;10.40;99.90;;;;;;5015387;28;20219;-78
2022/11/10 02:47:59;;;;;;;12.87;11.83;;;10.40;99.90;;;;;;5012905;28;20659;-78
2022/11/10 02:50:25;;;;;;;12.20;10.13;;;10.50;99.90;;;;;;5004568;28;20706;-78
2022/11/10 02:52:51;;;;;;;49.63;46.97;;;10.40;99.90;;;;;;4993780;28;20176;-78
2022/11/10 02:55:17;;;;;;;28.93;26.70;;;10.50;99.90;;;;;;4993602;28;20204;-78
2022/11/10 02:57:42;;;;;;;17.47;16.03;;;10.60;99.90;;;;;;4994723;28;20189;-78
2022/11/10 03:00:09;;;;;;;12.90;11.83;;;10.70;99.90;;;;;;4999039;28;20225;-78
2022/11/10 03:02:35;;;;;;;16.57;14.93;;;10.60;99.90;;;;;;5004172;28;20279;-78
2022/11/10 03:05:00;;;;;;;10.97;9.73;;;10.70;99.90;;;;;;4994267;28;20244;-78
2022/11/10 03:07:26;;;;;;;22.03;20.60;;;10.60;99.90;;;;;;4994346;28;20618;-78
2022/11/10 03:09:52;;;;;;;24.03;22.37;;;10.60;99.90;;;;;;4993465;28;20177;-77
2022/11/10 03:12:18;;;;;;;13.37;12.13;;;10.60;99.90;;;;;;4993077;28;20279;-78
2022/11/10 03:14:44;;;;;;;11.83;8.23;;;10.60;99.90;;;;;;4993378;28;20291;-78
2022/11/10 03:17:09;;;;;;;13.67;12.27;;;10.60;99.90;;;;;;4996376;28;20747;-78
2022/11/10 03:19:35;;;;;;;16.30;15.13;;;10.60;99.90;;;;;;4997335;28;20188;-78
2022/11/10 03:22:01;;;;;;;11.03;10.00;;;10.50;99.90;;;;;;5008634;28;20228;-78
2022/11/10 03:24:27;;;;;;;10.53;8.30;;;10.50;99.90;;;;;;5026017;28;20228;-77
2022/11/10 03:26:52;;;;;;;9.57;7.47;;;10.40;99.90;;;;;;5038817;28;20176;-78
2022/11/10 03:29:18;;;;;;;17.20;15.80;;;10.30;99.90;;;;;;5042134;28;20176;-78
2022/11/10 03:31:44;;;;;;;8.90;7.30;;;10.20;99.90;;;;;;5017620;28;20185;-78
2022/11/10 03:34:10;;;;;;;9.50;8.60;;;10.20;99.90;;;;;;5013355;28;20302;-78
2022/11/10 03:36:36;;;;;;;12.50;8.00;;;10.10;99.90;;;;;;5014483;28;20202;-78
2022/11/10 03:39:02;;;;;;;9.10;7.93;;;10.10;99.90;;;;;;5012734;28;20188;-78
2022/11/10 03:41:28;;;;;;;12.30;11.30;;;10.10;99.90;;;;;;5013198;28;20198;-78
2022/11/10 03:43:53;;;;;;;12.63;11.83;;;10.10;99.90;;;;;;5013451;28;20207;-78
2022/11/10 03:46:19;;;;;;;14.10;12.90;;;10.10;99.90;;;;;;5015119;28;20186;-78
2022/11/10 03:48:45;;;;;;;9.60;7.97;;;10.10;99.90;;;;;;5013501;28;20632;-78
2022/11/10 03:51:11;;;;;;;9.30;7.00;;;10.10;99.90;;;;;;5002565;28;20202;-79
2022/11/10 03:53:37;;;;;;;8.83;8.10;;;10.10;99.90;;;;;;4996066;28;20329;-79
2022/11/10 03:56:04;;;;;;;9.27;8.37;;;10.10;99.90;;;;;;4997185;28;20241;-79
2022/11/10 03:58:31;;;;;;;9.73;8.30;;;10.10;99.90;;;;;;4999384;28;20181;-77
2022/11/10 04:00:57;;;;;;;11.87;8.93;;;10.10;99.90;;;;;;5005918;28;20191;-78
2022/11/10 04:03:23;;;;;;;23.97;14.83;;;10.00;99.90;;;;;;5016117;28;20188;-78
2022/11/10 04:16:48;;;;;;;11.27;10.13;;;9.60;99.90;;;;;;4995264;28;20188;-79
2022/11/10 04:19:14;;;;;;;11.50;10.73;;;9.50;99.90;;;;;;5014034;28;20712;-79
2022/11/10 04:21:40;;;;;;;11.53;10.47;;;9.60;99.90;;;;;;5014401;28;20186;-79
2022/11/10 04:24:06;;;;;;;12.97;12.17;;;9.50;99.90;;;;;;5010984;28;20211;-79
2022/11/10 04:26:36;;;;;;;15.50;14.70;;;9.40;99.90;;;;;;5013444;28;20187;-79
2022/11/10 04:29:10;;;;;;;15.43;14.33;;;9.40;99.90;;;;;;4999960;28;20283;-79
2022/11/10 04:31:38;;;;;;;18.47;17.07;;;9.40;99.90;;;;;;4998259;28;20266;-79
2022/11/10 04:34:06;;;;;;;24.87;23.37;;;9.40;99.90;;;;;;4992725;28;20219;-79
2022/11/10 04:36:34;;;;;;;26.23;24.90;;;9.40;99.90;;;;;;4992285;28;20559;-79
2022/11/10 04:39:01;;;;;;;22.00;20.60;;;9.40;99.90;;;;;;4991096;28;20226;-79
2022/11/10 04:41:29;;;;;;;18.10;17.03;;;9.30;99.90;;;;;;4991259;28;20196;-79
2022/11/10 04:43:55;;;;;;;20.70;19.27;;;9.30;99.90;;;;;;4991757;28;20480;-79
2022/11/10 04:46:25;;;;;;;17.83;16.93;;;9.20;99.90;;;;;;5006011;28;20230;-79
2022/11/10 04:48:52;;;;;;;14.70;13.80;;;9.20;99.90;;;;;;5000379;28;20191;-80
2022/11/10 04:51:19;;;;;;;14.33;12.10;;;9.20;99.90;;;;;;4998847;28;20204;-78
2022/11/10 04:53:45;;;;;;;13.23;12.43;;;9.10;99.90;;;;;;4998957;28;20215;-80
2022/11/10 04:56:15;;;;;;;15.97;14.80;;;9.10;99.90;;;;;;4994993;28;20184;-79
2022/11/10 04:58:41;;;;;;;18.37;17.07;;;9.00;99.90;;;;;;4998940;28;20173;-78
2022/11/10 05:01:11;;;;;;;23.03;21.73;;;8.90;99.90;;;;;;5016897;28;20188;-79
2022/11/10 05:03:37;;;;;;;24.03;22.43;;;8.90;99.90;;;;;;5014835;28;20223;-78
2022/11/10 05:06:03;;;;;;;21.87;20.57;;;8.80;99.90;;;;;;5033686;28;20183;-79
2022/11/10 05:08:29;;;;;;;24.33;22.47;;;8.80;99.90;;;;;;5037603;28;20179;-78
2022/11/10 05:10:55;;;;;;;23.73;22.43;;;8.80;99.90;;;;;;5039450;28;20179;-78
2022/11/10 05:13:20;;;;;;;18.83;17.73;;;8.70;99.90;;;;;;5040256;28;20186;-78
2022/11/10 05:15:46;;;;;;;13.07;12.23;;;8.70;99.90;;;;;;5031679;28;20385;-78
2022/11/10 05:18:12;;;;;;;12.97;11.87;;;8.70;99.90;;;;;;5014021;28;20218;-79
2022/11/10 05:20:37;;;;;;;10.57;9.77;;;8.70;99.90;;;;;;5014772;28;20193;-78
2022/11/10 05:25:48;;;;;;;11.80;10.97;;;8.60;99.90;;;;;;5014918;28;20212;-78
2022/11/10 05:28:15;;;;;;;13.30;12.30;;;8.60;99.90;;;;;;5013190;28;20205;-79
2022/11/10 05:30:41;;;;;;;15.57;14.37;;;8.50;99.90;;;;;;5023828;28;20184;-78
2022/11/10 05:33:07;;;;;;;17.43;16.27;;;8.40;99.90;;;;;;5016093;28;20184;-79
2022/11/10 05:35:34;;;;;;;18.63;17.30;;;8.40;99.90;;;;;;5080864;22;20234;-79
2022/11/10 05:38:00;;;;;;;16.53;15.57;;;8.30;99.90;;;;;;5077539;28;20185;-79
2022/11/10 05:40:27;;;;;;;22.57;20.73;;;8.20;99.90;;;;;;5078851;28;20192;-79
2022/11/10 05:42:52;;;;;;;15.73;14.63;;;8.20;99.90;;;;;;5079807;28;20173;-78
2022/11/10 05:45:23;;;;;;;10.13;9.43;;;8.20;99.90;;;;;;5079935;28;20229;-79
2022/11/10 05:47:49;;;;;;;9.00;8.50;;;8.10;99.90;;;;;;5081204;28;20182;-78
2022/11/10 05:50:17;;;;;;;6.93;6.43;;;8.10;99.90;;;;;;5080945;28;20192;-78
2022/11/10 05:52:47;;;;;;;7.40;6.77;;;8.00;99.90;;;;;;5084225;28;20185;-79
2022/11/10 05:55:14;;;;;;;8.90;8.10;;;7.90;99.90;;;;;;5101899;28;20202;-79
2022/11/10 05:57:48;;;;;;;9.10;7.73;;;7.80;99.90;;;;;;5100402;28;20181;-78
2022/11/10 06:00:16;;;;;;;8.90;8.13;;;7.80;99.90;;;;;;5095866;28;20192;-78
2022/11/10 06:02:42;;;;;;;9.27;8.37;;;7.70;99.90;;;;;;5096188;28;20186;-78
2022/11/10 06:05:09;;;;;;;7.57;7.07;;;7.70;99.90;;;;;;5097641;28;20307;-77
2022/11/10 06:07:36;;;;;;;9.23;7.63;;;7.60;99.90;;;;;;5097584;28;20169;-78
2022/11/10 06:10:03;;;;;;;8.07;7.47;;;7.50;99.90;;;;;;5100123;28;20195;-76
2022/11/10 06:12:29;;;;;;;8.23;6.67;;;7.40;99.90;;;;;;5111655;28;20173;-77
2022/11/10 06:14:57;;;;;;;8.63;7.93;;;7.40;99.90;;;;;;5104184;28;20288;-79
2022/11/10 06:17:24;;;;;;;22.67;21.30;;;7.40;99.90;;;;;;5102211;28;20212;-78
2022/11/10 06:19:49;;;;;;;15.70;14.73;;;7.40;99.90;;;;;;5102087;28;20193;-78
2022/11/10 06:22:15;;;;;;;89.13;84.37;;;7.40;99.90;;;;;;5100777;28;20185;-79
2022/11/10 06:24:41;;;;;;;144.37;136.30;;;7.50;99.90;;;;;;5099438;28;20311;-78
2022/11/10 06:27:07;;;;;;;146.27;138.30;;;7.70;99.90;;;;;;5099980;28;20173;-77
2022/11/10 06:29:32;;;;;;;140.17;132.83;;;7.70;99.90;;;;;;5100916;28;20181;-79
2022/11/10 06:31:58;;;;;;;141.70;134.30;;;7.80;99.90;;;;;;5098609;28;20177;-79
2022/11/10 06:34:24;;;;;;;109.87;103.63;;;7.90;99.90;;;;;;5096715;28;20213;-78
2022/11/10 06:36:50;;;;;;;146.20;138.40;;;8.00;99.90;;;;;;5100552;28;20734;-79
2022/11/10 06:39:15;;;;;;;137.27;129.57;;;8.00;99.90;;;;;;5105587;28;20675;-78
2022/11/10 06:41:41;;;;;;;37.73;35.23;;;8.00;99.90;;;;;;5103862;28;20180;-77
2022/11/10 06:44:07;;;;;;;12.27;11.37;;;8.10;99.90;;;;;;5110353;28;20685;-76
2022/11/10 06:46:32;;;;;;;12.40;11.43;;;8.10;99.90;;;;;;5107897;28;20185;-76
2022/11/10 06:48:59;;;;;;;13.53;12.23;;;8.20;99.90;;;;;;5117378;28;20185;-78
2022/11/10 06:51:24;;;;;;;14.13;12.93;;;8.30;99.90;;;;;;5102137;28;20192;-77
2022/11/10 06:53:50;;;;;;;13.37;12.47;;;8.30;99.90;;;;;;5086345;28;20185;-77
2022/11/10 06:56:16;;;;;;;12.07;11.37;;;8.40;99.90;;;;;;5076111;28;20182;-77
2022/11/10 06:58:41;;;;;;;12.40;11.50;;;8.50;99.90;;;;;;5076471;28;20670;-78
2022/11/10 07:01:07;;;;;;;20.00;18.80;;;8.50;99.90;;;;;;5075916;28;20667;-78
2022/11/10 07:03:34;;;;;;;19.17;17.73;;;8.50;99.90;;;;;;5074362;28;20269;-78
2022/11/10 07:06:00;;;;;;;8.23;7.20;;;8.50;99.90;;;;;;5076002;28;20590;-79
2022/11/10 07:08:26;;;;;;;8.50;7.37;;;8.60;99.90;;;;;;5075798;28;20185;-77
2022/11/10 07:10:53;;;;;;;13.03;8.57;;;8.70;99.90;;;;;;5076503;28;20710;-79
2022/11/10 07:13:20;;;;;;;9.30;8.40;;;8.70;99.90;;;;;;5074614;28;20391;-78
2022/11/10 07:15:46;;;;;;;18.57;17.33;;;8.80;99.90;;;;;;5075929;28;20201;-78
2022/11/10 07:18:11;;;;;;;52.00;21.23;;;9.00;99.90;;;;;;5075721;28;20215;-79
2022/11/10 07:20:38;;;;;;;41.77;21.63;;;9.20;99.90;;;;;;5075091;28;20185;-78
2022/11/10 07:23:06;;;;;;;42.50;13.63;;;9.30;99.90;;;;;;5075610;28;20185;-77
2022/11/10 07:25:34;;;;;;;56.07;30.50;;;9.40;99.90;;;;;;5075186;28;20263;-78
2022/11/10 07:28:02;;;;;;;70.40;14.30;;;9.50;99.90;;;;;;5075524;28;20553;-79
2022/11/10 07:30:30;;;;;;;70.70;13.07;;;9.40;99.90;;;;;;5076338;28;20213;-78
2022/11/10 07:33:09;;;;;;;79.43;20.63;;;9.60;99.90;;;;;;5076429;28;20249;-79
2022/11/10 07:35:35;;;;;;;66.03;21.67;;;9.70;99.90;;;;;;5076395;28;20239;-78
2022/11/10 07:38:04;;;;;;;33.40;12.30;;;9.80;99.90;;;;;;5074859;28;20178;-78
2022/11/10 07:40:31;;;;;;;42.83;13.73;;;9.90;99.90;;;;;;5074366;28;20190;-79
2022/11/10 07:42:56;;;;;;;86.27;14.47;;;10.00;99.90;;;;;;5075474;28;20670;-79
2022/11/10 07:45:22;;;;;;;81.33;16.07;;;10.10;99.90;;;;;;5073343;28;20220;-78
2022/11/10 07:47:49;;;;;;;94.60;18.40;;;10.30;99.90;;;;;;5076298;28;20174;-78
2022/11/10 07:50:16;;;;;;;106.40;14.43;;;10.30;99.90;;;;;;5078568;28;20173;-79
2022/11/10 07:52:41;;;;;;;79.97;25.67;;;10.30;99.90;;;;;;5075907;28;20182;-74
2022/11/10 07:55:07;;;;;;;102.60;80.37;;;10.50;99.90;;;;;;5089185;28;20237;-74
2022/11/10 07:57:33;;;;;;;114.70;102.20;;;10.60;99.90;;;;;;5070146;28;20182;-74
2022/11/10 07:59:59;;;;;;;88.37;76.93;;;10.60;99.90;;;;;;5073008;28;20189;-79
2022/11/10 08:02:25;;;;;;;71.83;64.13;;;10.70;99.90;;;;;;5076358;28;20187;-78
2022/11/10 08:04:51;;;;;;;126.50;110.53;;;10.70;99.90;;;;;;5075831;28;20217;-79
2022/11/10 08:07:17;;;;;;;102.83;75.30;;;10.70;99.90;;;;;;5074933;28;20281;-78
2022/11/10 08:09:43;;;;;;;72.17;36.80;;;10.70;99.90;;;;;;5076239;28;20174;-78
2022/11/10 08:12:09;;;;;;;74.53;38.77;;;10.60;99.90;;;;;;5074432;28;20594;-78
2022/11/10 08:14:35;;;;;;;100.00;41.77;;;10.70;99.90;;;;;;5079719;28;20209;-77
2022/11/10 08:17:01;;;;;;;82.93;22.20;;;10.70;99.90;;;;;;5081837;28;20531;-78
2022/11/10 08:19:27;;;;;;;110.57;25.03;;;10.50;99.90;;;;;;5083743;28;20181;-78
2022/11/10 08:21:52;;;;;;;50.87;16.37;;;10.50;99.90;;;;;;5073618;28;20188;-78
2022/11/10 08:24:18;;;;;;;85.73;77.03;;;10.40;99.90;;;;;;5073384;28;20236;-78
2022/11/10 08:26:44;;;;;;;135.93;116.90;;;10.40;99.90;;;;;;5074187;28;20174;-78
2022/11/10 08:29:10;;;;;;;164.83;141.70;;;10.50;99.90;;;;;;5083604;28;20178;-77
2022/11/10 08:31:37;;;;;;;162.67;147.17;;;10.50;99.90;;;;;;5083700;28;20193;-78
2022/11/10 08:34:03;;;;;;;129.43;112.50;;;10.70;99.90;;;;;;5072492;28;20692;-77
2022/11/10 08:36:29;;;;;;;149.70;84.63;;;10.70;99.90;;;;;;5074904;28;20185;-78
2022/11/10 08:38:54;;;;;;;84.10;77.30;;;10.90;99.90;;;;;;5075457;28;20684;-77
2022/11/10 08:41:20;;;;;;;120.10;73.37;;;10.80;99.90;;;;;;5073233;28;20177;-78
2022/11/10 08:43:46;;;;;;;68.93;62.90;;;11.00;99.90;;;;;;5074199;28;20181;-79
2022/11/10 08:46:12;;;;;;;46.53;42.27;;;11.00;99.90;;;;;;5072576;28;20256;-78
2022/11/10 08:48:38;;;;;;;24.90;9.90;;;11.20;99.90;;;;;;5072935;28;20182;-78
2022/11/10 08:51:04;;;;;;;19.33;10.83;;;11.20;99.90;;;;;;5072291;28;20617;-78
2022/11/10 08:53:30;;;;;;;49.97;12.13;;;11.10;99.90;;;;;;5073894;28;20251;-78
2022/11/10 08:55:59;;;;;;;86.30;14.63;;;10.90;99.90;;;;;;5073501;28;20393;-78
2022/11/10 08:58:25;;;;;;;51.33;20.07;;;10.90;99.90;;;;;;5073269;28;20212;-78
2022/11/10 09:00:51;;;;;;;120.73;110.47;;;11.00;99.90;;;;;;5072615;28;20181;-78
2022/11/10 09:03:19;;;;;;;107.30;101.33;;;11.40;99.90;;;;;;5073632;28;20456;-78
2022/11/10 09:05:47;;;;;;;36.10;24.63;;;11.70;99.90;;;;;;5072284;28;20246;-78
2022/11/10 09:08:13;;;;;;;26.67;11.53;;;12.20;99.90;;;;;;5072922;28;20189;-77
2022/11/10 09:10:41;;;;;;;19.33;12.57;;;12.60;99.90;;;;;;5073544;28;20661;-78
2022/11/10 09:13:08;;;;;;;22.70;16.93;;;12.90;99.90;;;;;;5072658;28;20189;-78
2022/11/10 09:15:34;;;;;;;24.70;22.63;;;13.30;99.90;;;;;;5073644;28;20228;-78
2022/11/10 09:18:02;;;;;;;39.23;36.73;;;13.60;99.90;;;;;;5073477;28;20548;-78
2022/11/10 09:20:30;;;;;;;45.40;41.10;;;13.90;99.90;;;;;;5072153;28;20177;-78
2022/11/10 09:23:02;;;;;;;28.03;26.33;;;13.70;99.90;;;;;;5074614;28;20193;-78
2022/11/10 09:25:28;;;;;;;19.43;18.17;;;13.80;99.90;;;;;;5073692;28;20584;-78
2022/11/10 09:27:53;;;;;;;17.80;16.53;;;14.30;99.90;;;;;;5072187;28;20295;-78
2022/11/10 09:30:19;;;;;;;17.83;16.67;;;15.40;99.90;;;;;;5071593;28;20178;-78
2022/11/10 09:32:45;;;;;;;18.40;17.30;;;16.60;99.90;;;;;;5073277;28;20753;-78
2022/11/10 09:35:12;;;;;;;26.53;24.87;;;17.40;99.90;;;;;;5072937;28;20245;-78
2022/11/10 09:37:39;;;;;;;20.40;18.90;;;17.80;99.90;;;;;;5070427;28;20189;-77
2022/11/10 09:40:05;;;;;;;30.53;28.73;;;18.30;99.90;;;;;;5072978;28;20235;-78
2022/11/10 09:42:37;;;;;;;19.50;17.93;;;18.70;99.90;;;;;;5071606;28;20185;-77
2022/11/10 09:45:15;;;;;;;14.87;14.00;;;19.10;99.90;;;;;;5073768;28;20270;-78
2022/11/10 09:47:48;;;;;;;21.73;20.60;;;19.50;99.90;;;;;;5078536;28;20196;-76
2022/11/10 09:50:25;;;;;;;21.50;20.30;;;19.80;99.90;;;;;;5077215;28;20205;-77
2022/11/10 09:52:52;;;;;;;14.70;13.90;;;19.60;99.90;;;;;;5077517;28;20260;-77
2022/11/10 09:55:42;;;;;;;8.57;7.87;;;19.30;99.90;;;;;;5074219;28;20201;-78
2022/11/10 09:58:11;;;;;;;7.07;6.20;;;20.10;99.90;;;;;;5072272;28;20186;-78
2022/11/10 10:00:39;;;;;;;11.00;10.30;;;20.30;99.90;;;;;;5072476;28;20268;-78
2022/11/10 10:03:06;;;;;;;7.60;7.10;;;20.70;99.90;;;;;;5072069;28;20205;-79
2022/11/10 10:06:09;;;;;;;7.23;6.63;;;20.80;99.90;;;;;;5072370;28;20228;-78
2022/11/10 10:09:10;;;;;;;11.37;10.60;;;20.90;99.90;;;;;;5074504;28;20217;-78
2022/11/10 10:11:58;;;;;;;11.93;10.73;;;20.70;99.90;;;;;;5077605;28;20231;-77
2022/11/10 10:14:59;;;;;;;19.10;18.03;;;20.50;99.90;;;;;;5072308;28;20678;-77
2022/11/10 10:17:32;;;;;;;24.30;22.90;;;21.00;99.90;;;;;;5059492;28;20243;-78
2022/11/10 10:20:13;;;;;;;24.93;23.43;;;21.50;99.90;;;;;;5075404;28;20189;-77
2022/11/10 10:22:54;;;;;;;16.53;15.67;;;21.50;99.90;;;;;;5070344;28;20589;-77
2022/11/10 10:25:24;;;;;;;16.90;15.93;;;21.40;99.90;;;;;;5071274;28;20217;-78
2022/11/10 10:28:12;;;;;;;13.60;12.83;;;21.80;99.90;;;;;;5071925;28;20639;-77
2022/11/10 10:30:40;;;;;;;13.43;12.63;;;22.00;99.90;;;;;;5071989;28;20659;-77
2022/11/10 10:33:17;;;;;;;15.83;14.73;;;22.60;99.90;;;;;;5075096;28;20170;-77
2022/11/10 10:35:46;;;;;;;9.83;9.13;;;22.70;99.90;;;;;;5070709;28;20235;-76
2022/11/10 10:38:20;;;;;;;8.57;8.07;;;23.00;99.90;;;;;;5070079;28;20541;-77
2022/11/10 10:40:48;;;;;;;14.00;13.23;;;23.70;99.90;;;;;;5070721;28;20192;-76
2022/11/10 10:43:14;;;;;;;12.33;11.20;;;23.30;99.90;;;;;;5069627;28;20182;-76
2022/11/10 10:45:41;;;;;;;23.27;22.13;;;23.30;99.90;;;;;;5070734;28;20686;-77
2022/11/10 10:48:26;;;;;;;22.23;21.03;;;22.90;99.90;;;;;;5070762;28;20208;-77
2022/11/10 10:50:51;;;;;;;18.80;17.70;;;22.90;99.90;;;;;;5073700;28;20743;-77
2022/11/10 10:53:23;;;;;;;25.07;23.67;;;22.70;99.90;;;;;;5074462;28;20174;-77
2022/11/10 10:55:52;;;;;;;21.63;20.13;;;22.80;99.90;;;;;;5074040;28;20212;-76
2022/11/10 10:58:25;;;;;;;26.10;24.60;;;22.80;99.90;;;;;;5073744;28;20263;-76
2022/11/10 11:01:05;;;;;;;30.63;29.13;;;23.00;99.90;;;;;;5074083;28;20238;-77
2022/11/10 11:03:45;;;;;;;18.20;17.10;;;23.60;99.90;;;;;;5073191;28;20184;-76
2022/11/10 11:06:15;;;;;;;13.53;12.40;;;23.50;99.90;;;;;;5072765;28;20627;-76
2022/11/10 11:09:07;;;;;;;9.83;9.27;;;23.80;99.90;;;;;;5072708;28;20264;-77
2022/11/10 11:11:42;;;;;;;8.33;7.67;;;24.10;98.80;;;;;;5074215;28;20178;-77
2022/11/10 11:14:25;;;;;;;4.93;4.43;;;24.80;98.00;;;;;;5074190;28;20181;-77
2022/11/10 11:16:50;;;;;;;5.20;4.70;;;24.30;96.50;;;;;;5076472;28;20185;-76
2022/11/10 11:19:18;;;;;;;7.97;6.40;;;22.90;97.60;;;;;;5075431;28;20646;-76
2022/11/10 11:22:23;;;;;;;6.03;5.60;;;23.30;98.20;;;;;;5074259;28;20578;-77
2022/11/10 11:25:08;;;;;;;5.97;4.30;;;23.50;97.10;;;;;;5072278;28;20296;-77
2022/11/10 11:27:43;;;;;;;4.83;4.30;;;23.60;95.90;;;;;;5078499;28;20181;-76
2022/11/10 11:30:12;;;;;;;7.03;5.30;;;23.80;96.00;;;;;;5078278;28;20186;-77
2022/11/10 11:32:46;;;;;;;5.15;4.82;;;23.90;96.20;;;;;;5073941;28;20596;-77
2022/11/10 11:35:33;;;;;;;5.53;4.43;;;23.30;95.60;;;;;;5107488;22;20226;-72
2022/11/10 11:38:13;;;;;;;5.87;5.57;;;22.90;95.20;;;;;;5112100;28;20211;-72
2022/11/10 11:40:39;;;;;;;9.30;8.70;;;22.00;96.90;;;;;;5112416;28;20233;-72
2022/11/10 11:43:30;;;;;;;12.03;11.03;;;21.10;98.10;;;;;;5113871;28;20640;-72
2022/11/10 11:46:12;;;;;;;10.17;9.47;;;22.20;99.10;;;;;;5112766;28;20212;-72
2022/11/10 11:48:56;;;;;;;4.83;3.80;;;23.90;95.90;;;;;;5113431;28;20176;-72
2022/11/10 11:51:28;;;;;;;5.80;5.30;;;23.80;92.80;;;;;;5113805;28;20180;-72
2022/11/10 11:54:18;;;;;;;5.00;4.60;;;24.10;95.30;;;;;;5113610;28;20213;-72
2022/11/10 11:56:47;;;;;;;5.73;5.23;;;23.60;93.50;;;;;;5111819;28;20187;-74
2022/11/10 11:59:34;;;;;;;5.33;4.90;;;23.70;92.50;;;;;;5112896;28;20176;-73
2022/11/10 12:02:19;;;;;;;4.82;4.22;;;24.20;92.60;;;;;;5113082;28;20684;-72
2022/11/10 12:05:16;;;;;;;5.83;3.70;;;24.80;91.70;;;;;;5112961;28;20221;-72
2022/11/10 12:07:49;;;;;;;5.77;5.27;;;23.40;92.50;;;;;;5111463;28;20637;-72
2022/11/10 12:10:33;;;;;;;5.70;5.20;;;21.30;95.80;;;;;;5113586;28;20181;-73
2022/11/10 12:13:22;;;;;;;9.20;8.50;;;22.20;94.80;;;;;;5113895;28;20686;-73
2022/11/10 12:16:03;;;;;;;5.93;5.37;;;21.90;95.50;;;;;;5111818;28;20590;-74
2022/11/10 12:18:36;;;;;;;11.20;10.33;;;20.90;96.10;;;;;;5112758;28;20534;-72
2022/11/10 12:21:17;;;;;;;9.23;8.47;;;21.40;97.10;;;;;;5113004;28;20690;-72
2022/11/10 12:24:08;;;;;;;7.97;7.37;;;23.10;94.60;;;;;;5112877;28;20216;-73
2022/11/10 12:26:56;;;;;;;4.90;4.47;;;24.30;92.40;;;;;;5111335;28;20689;-73
2022/11/10 12:29:46;;;;;;;4.67;4.23;;;24.20;90.80;;;;;;5111317;28;20670;-73
2022/11/10 12:32:33;;;;;;;4.43;4.03;;;24.50;90.50;;;;;;5111648;28;20556;-72
2022/11/10 12:35:28;;;;;;;4.33;3.87;;;25.30;87.90;;;;;;5112335;28;20291;-72
2022/11/10 12:38:19;;;;;;;4.75;3.50;;;25.50;86.40;;;;;;5109025;28;20194;-72
2022/11/10 12:40:50;;;;;;;4.88;4.47;;;25.10;84.40;;;;;;5112427;28;20183;-72
2022/11/10 12:43:32;;;;;;;5.47;5.07;;;25.00;84.60;;;;;;5112369;28;20191;-72
2022/11/10 12:46:03;;;;;;;4.53;4.22;;;25.10;84.50;;;;;;5112095;28;20216;-72
2022/11/10 12:48:39;;;;;;;5.73;4.37;;;25.20;82.50;;;;;;5111775;28;20532;-72
2022/11/10 12:51:20;;;;;;;6.70;5.75;;;25.20;84.10;;;;;;5112319;28;20204;-72
2022/11/10 12:53:47;;;;;;;3.97;3.72;;;25.70;84.60;;;;;;5112235;28;20176;-72
2022/11/10 12:56:22;;;;;;;4.78;3.95;;;25.90;84.90;;;;;;5110788;28;20224;-74
2022/11/10 12:58:48;;;;;;;4.93;4.43;;;25.10;85.60;;;;;;5110424;28;20230;-72
2022/11/10 13:01:17;;;;;;;4.03;3.67;;;24.00;88.10;;;;;;5110844;28;20208;-72